sensor_id;sensor_type;location;lat;lon;timestamp;pressure;altitude;pressure_sealevel;temperature;humidity
55460;BME280;41326;45.302;-122.946;2022-11-15T00:01:24;102006.30;;;16.93;53.46
55460;BME280;41326;45.302;-122.946;2022-11-15T00:03:56;102008.38;;;16.91;53.47
55460;BME280;41326;45.302;-122.946;2022-11-15T00:06:24;102005.31;;;16.91;53.28
55460;BME280;41326;45.302;-122.946;2022-11-15T00:08:54;102011.67;;;16.93;53.43
55460;BME280;41326;45.302;-122.946;2022-11-15T00:11:24;102017.52;;;16.90;53.52
55460;BME280;41326;45.302;-122.946;2022-11-15T00:13:55;102021.41;;;16.89;53.61
55460;BME280;41326;45.302;-122.946;2022-11-15T00:16:25;102019.31;;;16.85;53.78
55460;BME280;41326;45.302;-122.946;2022-11-15T00:18:55;102025.39;;;16.83;53.99
55460;BME280;41326;45.302;-122.946;2022-11-15T00:21:26;102019.53;;;16.83;54.10
55460;BME280;41326;45.302;-122.946;2022-11-15T00:23:56;102020.26;;;16.81;54.31
55460;BME280;41326;45.302;-122.946;2022-11-15T00:26:25;102026.49;;;16.81;54.35
55460;BME280;41326;45.302;-122.946;2022-11-15T00:28:58;102031.07;;;16.82;54.22
55460;BME280;41326;45.302;-122.946;2022-11-15T00:31:27;102027.51;;;16.83;54.15
55460;BME280;41326;45.302;-122.946;2022-11-15T00:33:57;102040.88;;;16.80;54.24
55460;BME280;41326;45.302;-122.946;2022-11-15T00:36:28;102044.67;;;16.80;54.47
55460;BME280;41326;45.302;-122.946;2022-11-15T00:38:58;102046.34;;;16.84;54.34
55460;BME280;41326;45.302;-122.946;2022-11-15T00:42:35;102050.19;;;16.84;54.22
55460;BME280;41326;45.302;-122.946;2022-11-15T00:45:05;102053.85;;;16.91;54.15
55460;BME280;41326;45.302;-122.946;2022-11-15T00:47:35;102049.48;;;17.16;53.48
55460;BME280;41326;45.302;-122.946;2022-11-15T00:50:06;102047.82;;;17.31;53.18
55460;BME280;41326;45.302;-122.946;2022-11-15T00:52:36;102052.56;;;17.50;52.68
55460;BME280;41326;45.302;-122.946;2022-11-15T00:55:06;102055.50;;;17.61;52.23
55460;BME280;41326;45.302;-122.946;2022-11-15T00:57:36;102050.68;;;17.73;51.87
55460;BME280;41326;45.302;-122.946;2022-11-15T01:00:07;102056.46;;;17.68;51.88
55460;BME280;41326;45.302;-122.946;2022-11-15T01:02:37;102055.80;;;17.70;51.85
55460;BME280;41326;45.302;-122.946;2022-11-15T01:05:08;102054.53;;;17.78;51.78
55460;BME280;41326;45.302;-122.946;2022-11-15T01:07:38;102047.85;;;17.91;51.57
55460;BME280;41326;45.302;-122.946;2022-11-15T01:10:08;102051.97;;;18.06;51.34
55460;BME280;41326;45.302;-122.946;2022-11-15T01:12:39;102053.50;;;18.11;51.30
55460;BME280;41326;45.302;-122.946;2022-11-15T01:15:09;102048.70;;;18.13;51.19
55460;BME280;41326;45.302;-122.946;2022-11-15T01:17:39;102052.53;;;18.06;51.44
55460;BME280;41326;45.302;-122.946;2022-11-15T01:20:11;102047.92;;;17.97;51.68
55460;BME280;41326;45.302;-122.946;2022-11-15T01:22:41;102050.96;;;18.06;51.46
55460;BME280;41326;45.302;-122.946;2022-11-15T01:25:11;102050.19;;;18.17;51.32
55460;BME280;41326;45.302;-122.946;2022-11-15T01:27:41;102044.15;;;18.24;51.21
55460;BME280;41326;45.302;-122.946;2022-11-15T01:30:12;102044.42;;;18.30;51.12
55460;BME280;41326;45.302;-122.946;2022-11-15T01:32:42;102041.42;;;18.31;51.24
55460;BME280;41326;45.302;-122.946;2022-11-15T01:35:13;102033.85;;;18.20;51.72
55460;BME280;41326;45.302;-122.946;2022-11-15T01:37:43;102022.65;;;18.11;52.30
55460;BME280;41326;45.302;-122.946;2022-11-15T01:40:14;102021.18;;;18.02;52.89
55460;BME280;41326;45.302;-122.946;2022-11-15T01:42:44;102018.88;;;17.92;53.53
55460;BME280;41326;45.302;-122.946;2022-11-15T01:45:19;102017.39;;;17.91;53.40
55460;BME280;41326;45.302;-122.946;2022-11-15T01:47:46;102023.03;;;18.05;53.09
55460;BME280;41326;45.302;-122.946;2022-11-15T01:50:19;102018.32;;;18.18;52.83
55460;BME280;41326;45.302;-122.946;2022-11-15T01:52:46;102012.16;;;18.21;52.74
55460;BME280;41326;45.302;-122.946;2022-11-15T01:55:19;102010.34;;;18.19;52.72
55460;BME280;41326;45.302;-122.946;2022-11-15T01:57:48;102014.20;;;18.15;52.84
55460;BME280;41326;45.302;-122.946;2022-11-15T02:00:18;102017.80;;;18.11;52.92
55460;BME280;41326;45.302;-122.946;2022-11-15T02:02:48;102020.19;;;18.05;53.13
55460;BME280;41326;45.302;-122.946;2022-11-15T02:05:18;102024.35;;;17.98;53.31
55460;BME280;41326;45.302;-122.946;2022-11-15T02:07:49;102030.86;;;17.93;53.37
55460;BME280;41326;45.302;-122.946;2022-11-15T02:10:23;102039.53;;;17.89;53.45
55460;BME280;41326;45.302;-122.946;2022-11-15T02:12:50;102042.44;;;17.87;53.56
55460;BME280;41326;45.302;-122.946;2022-11-15T02:15:20;102047.04;;;17.83;53.71
55460;BME280;41326;45.302;-122.946;2022-11-15T02:18:02;102046.32;;;17.78;53.85
55460;BME280;41326;45.302;-122.946;2022-11-15T02:20:30;102056.84;;;17.82;53.73
55460;BME280;41326;45.302;-122.946;2022-11-15T02:23:04;102062.61;;;17.97;53.33
55460;BME280;41326;45.302;-122.946;2022-11-15T02:28:00;102071.24;;;18.23;52.72
55460;BME280;41326;45.302;-122.946;2022-11-15T02:30:26;102075.87;;;18.25;52.67
55460;BME280;41326;45.302;-122.946;2022-11-15T02:32:58;102078.63;;;18.18;53.21
55460;BME280;41326;45.302;-122.946;2022-11-15T02:35:29;102086.06;;;18.14;54.03
55460;BME280;41326;45.302;-122.946;2022-11-15T02:37:58;102086.72;;;18.08;54.91
55460;BME280;41326;45.302;-122.946;2022-11-15T02:40:31;102093.90;;;18.04;55.65
55460;BME280;41326;45.302;-122.946;2022-11-15T02:42:57;102086.15;;;17.99;56.93
55460;BME280;41326;45.302;-122.946;2022-11-15T02:45:27;102100.86;;;18.03;56.96
55460;BME280;41326;45.302;-122.946;2022-11-15T02:47:56;102099.47;;;18.08;56.70
55460;BME280;41326;45.302;-122.946;2022-11-15T02:50:27;102124.35;;;18.00;57.24
55460;BME280;41326;45.302;-122.946;2022-11-15T02:52:55;102111.90;;;18.02;57.88
55460;BME280;41326;45.302;-122.946;2022-11-15T02:55:30;102125.86;;;17.98;59.34
55460;BME280;41326;45.302;-122.946;2022-11-15T02:58:04;102124.99;;;17.97;60.22
55460;BME280;41326;45.302;-122.946;2022-11-15T03:00:26;102138.42;;;17.99;60.38
55460;BME280;41326;45.302;-122.946;2022-11-15T03:03:08;102142.25;;;17.99;61.30
55460;BME280;41326;45.302;-122.946;2022-11-15T03:05:34;102139.04;;;17.98;62.02
55460;BME280;41326;45.302;-122.946;2022-11-15T03:08:01;102137.63;;;17.95;61.83
55460;BME280;41326;45.302;-122.946;2022-11-15T03:10:32;102138.79;;;17.93;60.99
55460;BME280;41326;45.302;-122.946;2022-11-15T03:13:02;102141.72;;;17.85;60.67
55460;BME280;41326;45.302;-122.946;2022-11-15T03:15:31;102142.39;;;17.67;59.05
55460;BME280;41326;45.302;-122.946;2022-11-15T03:18:02;102145.06;;;17.77;56.39
55460;BME280;41326;45.302;-122.946;2022-11-15T03:20:29;102153.20;;;17.89;54.56
55460;BME280;41326;45.302;-122.946;2022-11-15T03:23:04;102152.75;;;18.05;52.63
55460;BME280;41326;45.302;-122.946;2022-11-15T03:25:32;102151.40;;;17.88;51.82
55460;BME280;41326;45.302;-122.946;2022-11-15T03:28:04;102141.42;;;17.73;51.15
55460;BME280;41326;45.302;-122.946;2022-11-15T03:30:31;102143.84;;;17.62;51.07
55460;BME280;41326;45.302;-122.946;2022-11-15T03:33:02;102148.59;;;17.47;51.04
55460;BME280;41326;45.302;-122.946;2022-11-15T03:35:34;102154.74;;;17.46;51.41
55460;BME280;41326;45.302;-122.946;2022-11-15T03:38:06;102161.10;;;17.55;50.45
55460;BME280;41326;45.302;-122.946;2022-11-15T03:40:37;102154.68;;;17.68;49.83
55460;BME280;41326;45.302;-122.946;2022-11-15T03:43:09;102157.69;;;17.80;49.36
55460;BME280;41326;45.302;-122.946;2022-11-15T03:45:36;102157.20;;;17.68;49.62
55460;BME280;41326;45.302;-122.946;2022-11-15T03:48:07;102155.65;;;17.56;49.67
55460;BME280;41326;45.302;-122.946;2022-11-15T03:50:34;102152.11;;;17.61;50.22
55460;BME280;41326;45.302;-122.946;2022-11-15T03:53:04;102155.34;;;17.84;50.29
55460;BME280;41326;45.302;-122.946;2022-11-15T03:55:37;102149.33;;;17.97;50.51
55460;BME280;41326;45.302;-122.946;2022-11-15T03:58:06;102155.71;;;17.99;50.86
55460;BME280;41326;45.302;-122.946;2022-11-15T04:00:35;102152.29;;;17.96;51.16
55460;BME280;41326;45.302;-122.946;2022-11-15T04:03:05;102145.36;;;17.93;51.51
55460;BME280;41326;45.302;-122.946;2022-11-15T04:05:36;102160.24;;;17.88;51.79
55460;BME280;41326;45.302;-122.946;2022-11-15T04:08:06;102161.04;;;17.85;52.00
55460;BME280;41326;45.302;-122.946;2022-11-15T04:10:37;102161.56;;;17.88;51.95
55460;BME280;41326;45.302;-122.946;2022-11-15T04:13:08;102168.22;;;17.84;52.30
55460;BME280;41326;45.302;-122.946;2022-11-15T04:15:37;102168.32;;;17.79;52.59
55460;BME280;41326;45.302;-122.946;2022-11-15T04:18:08;102179.33;;;17.74;52.96
55460;BME280;41326;45.302;-122.946;2022-11-15T04:20:38;102177.92;;;17.70;53.19
55460;BME280;41326;45.302;-122.946;2022-11-15T04:23:10;102173.63;;;17.68;53.36
55460;BME280;41326;45.302;-122.946;2022-11-15T04:25:39;102176.85;;;17.63;53.66
55460;BME280;41326;45.302;-122.946;2022-11-15T04:28:10;102180.71;;;17.69;53.45
55460;BME280;41326;45.302;-122.946;2022-11-15T04:30:40;102181.96;;;17.87;52.99
55460;BME280;41326;45.302;-122.946;2022-11-15T04:33:10;102187.14;;;18.05;52.59
55460;BME280;41326;45.302;-122.946;2022-11-15T04:35:40;102185.95;;;18.08;52.66
55460;BME280;41326;45.302;-122.946;2022-11-15T04:38:12;102199.01;;;18.08;52.70
55460;BME280;41326;45.302;-122.946;2022-11-15T04:40:41;102199.49;;;18.02;53.00
55460;BME280;41326;45.302;-122.946;2022-11-15T04:43:12;102206.26;;;17.98;53.18
55460;BME280;41326;45.302;-122.946;2022-11-15T04:45:41;102206.14;;;17.93;53.32
55460;BME280;41326;45.302;-122.946;2022-11-15T04:48:11;102206.69;;;17.90;53.41
55460;BME280;41326;45.302;-122.946;2022-11-15T04:50:42;102212.73;;;17.87;53.50
55460;BME280;41326;45.302;-122.946;2022-11-15T04:53:12;102213.17;;;17.84;53.60
55460;BME280;41326;45.302;-122.946;2022-11-15T04:55:44;102220.26;;;17.82;53.74
55460;BME280;41326;45.302;-122.946;2022-11-15T04:58:15;102218.04;;;17.78;53.90
55460;BME280;41326;45.302;-122.946;2022-11-15T05:00:43;102220.67;;;17.74;54.02
55460;BME280;41326;45.302;-122.946;2022-11-15T05:03:15;102216.27;;;17.69;54.20
55460;BME280;41326;45.302;-122.946;2022-11-15T05:05:44;102213.48;;;17.69;54.38
55460;BME280;41326;45.302;-122.946;2022-11-15T05:08:15;102220.55;;;17.65;54.54
55460;BME280;41326;45.302;-122.946;2022-11-15T05:10:45;102225.06;;;17.69;54.22
55460;BME280;41326;45.302;-122.946;2022-11-15T05:13:15;102222.69;;;17.68;54.20
55460;BME280;41326;45.302;-122.946;2022-11-15T05:15:46;102231.29;;;17.65;53.99
55460;BME280;41326;45.302;-122.946;2022-11-15T05:18:16;102222.12;;;17.58;54.22
55460;BME280;41326;45.302;-122.946;2022-11-15T05:20:46;102229.55;;;17.57;54.13
55460;BME280;41326;45.302;-122.946;2022-11-15T05:23:17;102229.33;;;17.55;54.03
55460;BME280;41326;45.302;-122.946;2022-11-15T05:25:47;102230.71;;;17.53;53.99
55460;BME280;41326;45.302;-122.946;2022-11-15T05:28:18;102242.81;;;17.53;53.77
55460;BME280;41326;45.302;-122.946;2022-11-15T05:30:47;102251.89;;;17.51;53.56
55460;BME280;41326;45.302;-122.946;2022-11-15T05:33:18;102249.56;;;17.49;53.40
55460;BME280;41326;45.302;-122.946;2022-11-15T05:35:51;102250.25;;;17.47;53.38
55460;BME280;41326;45.302;-122.946;2022-11-15T05:38:18;102251.33;;;17.41;53.40
55460;BME280;41326;45.302;-122.946;2022-11-15T05:40:48;102252.52;;;17.40;53.35
55460;BME280;41326;45.302;-122.946;2022-11-15T05:43:19;102252.98;;;17.36;53.38
55460;BME280;41326;45.302;-122.946;2022-11-15T05:45:49;102259.10;;;17.35;53.30
55460;BME280;41326;45.302;-122.946;2022-11-15T05:48:19;102256.52;;;17.34;53.16
55460;BME280;41326;45.302;-122.946;2022-11-15T05:50:51;102251.98;;;17.33;53.04
55460;BME280;41326;45.302;-122.946;2022-11-15T05:53:21;102248.32;;;17.30;52.88
55460;BME280;41326;45.302;-122.946;2022-11-15T05:55:50;102242.88;;;17.26;52.91
55460;BME280;41326;45.302;-122.946;2022-11-15T05:58:20;102243.94;;;17.24;52.89
55460;BME280;41326;45.302;-122.946;2022-11-15T06:00:50;102232.31;;;17.21;52.89
55460;BME280;41326;45.302;-122.946;2022-11-15T06:03:20;102234.87;;;17.18;52.87
55460;BME280;41326;45.302;-122.946;2022-11-15T06:05:51;102233.68;;;17.15;52.76
55460;BME280;41326;45.302;-122.946;2022-11-15T06:08:21;102233.75;;;17.15;52.65
55460;BME280;41326;45.302;-122.946;2022-11-15T06:10:52;102227.63;;;17.15;52.48
55460;BME280;41326;45.302;-122.946;2022-11-15T06:13:22;102228.10;;;17.16;52.36
55460;BME280;41326;45.302;-122.946;2022-11-15T06:15:55;102243.64;;;17.16;52.23
55460;BME280;41326;45.302;-122.946;2022-11-15T06:18:23;102233.36;;;17.15;51.99
55460;BME280;41326;45.302;-122.946;2022-11-15T06:20:53;102244.68;;;17.13;51.73
55460;BME280;41326;45.302;-122.946;2022-11-15T06:23:24;102244.65;;;17.09;51.40
55460;BME280;41326;45.302;-122.946;2022-11-15T06:25:57;102247.12;;;17.08;51.06
55460;BME280;41326;45.302;-122.946;2022-11-15T06:28:24;102250.78;;;17.06;50.57
55460;BME280;41326;45.302;-122.946;2022-11-15T06:30:54;102253.85;;;17.05;50.25
55460;BME280;41326;45.302;-122.946;2022-11-15T06:33:24;102266.00;;;17.03;50.03
55460;BME280;41326;45.302;-122.946;2022-11-15T06:35:55;102259.66;;;17.03;49.81
55460;BME280;41326;45.302;-122.946;2022-11-15T06:38:25;102272.96;;;16.99;49.61
55460;BME280;41326;45.302;-122.946;2022-11-15T06:41:00;102271.35;;;16.94;49.51
55460;BME280;41326;45.302;-122.946;2022-11-15T06:43:26;102263.95;;;16.91;49.31
55460;BME280;41326;45.302;-122.946;2022-11-15T06:45:57;102267.73;;;16.87;49.27
55460;BME280;41326;45.302;-122.946;2022-11-15T06:48:26;102259.19;;;16.85;49.07
55460;BME280;41326;45.302;-122.946;2022-11-15T06:50:58;102261.40;;;16.85;48.91
55460;BME280;41326;45.302;-122.946;2022-11-15T06:53:28;102261.06;;;16.81;48.87
55460;BME280;41326;45.302;-122.946;2022-11-15T06:55:59;102256.34;;;16.79;48.83
55460;BME280;41326;45.302;-122.946;2022-11-15T06:58:28;102253.50;;;16.76;48.70
55460;BME280;41326;45.302;-122.946;2022-11-15T07:00:59;102244.96;;;16.74;48.54
55460;BME280;41326;45.302;-122.946;2022-11-15T07:03:28;102234.76;;;16.72;48.37
55460;BME280;41326;45.302;-122.946;2022-11-15T07:05:59;102245.59;;;16.70;48.25
55460;BME280;41326;45.302;-122.946;2022-11-15T07:08:32;102244.89;;;16.71;47.93
55460;BME280;41326;45.302;-122.946;2022-11-15T07:11:01;102241.87;;;16.67;47.83
55460;BME280;41326;45.302;-122.946;2022-11-15T07:13:31;102231.85;;;16.64;47.76
55460;BME280;41326;45.302;-122.946;2022-11-15T07:16:01;102236.71;;;16.63;47.70
55460;BME280;41326;45.302;-122.946;2022-11-15T07:18:31;102240.44;;;16.62;47.54
55460;BME280;41326;45.302;-122.946;2022-11-15T07:21:02;102227.92;;;16.60;47.45
55460;BME280;41326;45.302;-122.946;2022-11-15T07:23:32;102215.72;;;16.60;47.22
55460;BME280;41326;45.302;-122.946;2022-11-15T07:26:03;102227.12;;;16.58;47.16
55460;BME280;41326;45.302;-122.946;2022-11-15T07:28:33;102225.46;;;16.57;46.90
55460;BME280;41326;45.302;-122.946;2022-11-15T07:31:03;102228.12;;;16.56;46.68
55460;BME280;41326;45.302;-122.946;2022-11-15T07:33:33;102240.01;;;16.53;46.65
55460;BME280;41326;45.302;-122.946;2022-11-15T07:36:05;102232.06;;;16.54;46.51
55460;BME280;41326;45.302;-122.946;2022-11-15T07:38:34;102229.87;;;16.51;46.46
55460;BME280;41326;45.302;-122.946;2022-11-15T07:41:04;102245.43;;;16.48;46.34
55460;BME280;41326;45.302;-122.946;2022-11-15T07:43:34;102250.16;;;16.45;46.28
55460;BME280;41326;45.302;-122.946;2022-11-15T07:46:04;102253.87;;;16.43;46.18
55460;BME280;41326;45.302;-122.946;2022-11-15T07:48:34;102250.98;;;16.41;45.96
55460;BME280;41326;45.302;-122.946;2022-11-15T07:51:05;102254.10;;;16.39;45.82
55460;BME280;41326;45.302;-122.946;2022-11-15T07:53:35;102253.13;;;16.35;45.82
55460;BME280;41326;45.302;-122.946;2022-11-15T07:56:06;102251.47;;;16.32;45.85
55460;BME280;41326;45.302;-122.946;2022-11-15T07:58:35;102251.90;;;16.32;45.85
55460;BME280;41326;45.302;-122.946;2022-11-15T08:01:09;102247.50;;;16.30;45.77
55460;BME280;41326;45.302;-122.946;2022-11-15T08:03:37;102262.55;;;16.29;45.74
55460;BME280;41326;45.302;-122.946;2022-11-15T08:06:06;102277.41;;;16.28;45.66
55460;BME280;41326;45.302;-122.946;2022-11-15T08:08:37;102280.56;;;16.26;45.56
55460;BME280;41326;45.302;-122.946;2022-11-15T08:11:07;102283.24;;;16.24;45.47
55460;BME280;41326;45.302;-122.946;2022-11-15T08:13:38;102279.60;;;16.21;45.53
55460;BME280;41326;45.302;-122.946;2022-11-15T08:16:09;102292.04;;;16.20;45.57
55460;BME280;41326;45.302;-122.946;2022-11-15T08:18:38;102288.77;;;16.17;45.68
55460;BME280;41326;45.302;-122.946;2022-11-15T08:21:09;102284.18;;;16.12;45.83
55460;BME280;41326;45.302;-122.946;2022-11-15T08:23:39;102286.00;;;16.11;45.88
55460;BME280;41326;45.302;-122.946;2022-11-15T08:26:10;102285.90;;;16.11;45.80
55460;BME280;41326;45.302;-122.946;2022-11-15T08:28:41;102280.91;;;16.09;45.77
55460;BME280;41326;45.302;-122.946;2022-11-15T08:31:13;102282.84;;;16.08;45.76
55460;BME280;41326;45.302;-122.946;2022-11-15T08:33:41;102283.36;;;16.04;45.82
55460;BME280;41326;45.302;-122.946;2022-11-15T08:36:12;102277.08;;;16.01;45.98
55460;BME280;41326;45.302;-122.946;2022-11-15T08:38:41;102274.18;;;16.01;45.97
55460;BME280;41326;45.302;-122.946;2022-11-15T08:41:13;102273.88;;;15.98;46.04
55460;BME280;41326;45.302;-122.946;2022-11-15T08:43:42;102269.97;;;15.96;46.04
55460;BME280;41326;45.302;-122.946;2022-11-15T08:46:12;102264.06;;;15.95;45.96
55460;BME280;41326;45.302;-122.946;2022-11-15T08:48:42;102262.70;;;15.93;45.90
55460;BME280;41326;45.302;-122.946;2022-11-15T08:51:12;102254.35;;;15.91;45.89
55460;BME280;41326;45.302;-122.946;2022-11-15T08:53:42;102254.75;;;15.88;45.91
55460;BME280;41326;45.302;-122.946;2022-11-15T08:56:14;102254.90;;;15.88;45.90
55460;BME280;41326;45.302;-122.946;2022-11-15T08:58:43;102253.12;;;15.93;45.76
55460;BME280;41326;45.302;-122.946;2022-11-15T09:01:19;102252.43;;;16.02;45.54
55460;BME280;41326;45.302;-122.946;2022-11-15T09:03:45;102256.63;;;16.01;45.50
55460;BME280;41326;45.302;-122.946;2022-11-15T09:06:14;102257.60;;;16.00;45.45
55460;BME280;41326;45.302;-122.946;2022-11-15T09:08:45;102261.27;;;15.99;45.29
55460;BME280;41326;45.302;-122.946;2022-11-15T09:11:16;102262.54;;;16.00;45.17
55460;BME280;41326;45.302;-122.946;2022-11-15T09:13:45;102265.52;;;15.95;45.19
55460;BME280;41326;45.302;-122.946;2022-11-15T09:16:16;102275.00;;;15.93;45.24
55460;BME280;41326;45.302;-122.946;2022-11-15T09:18:46;102269.08;;;15.88;45.30
55460;BME280;41326;45.302;-122.946;2022-11-15T09:21:17;102263.32;;;15.85;45.30
55460;BME280;41326;45.302;-122.946;2022-11-15T09:23:46;102266.22;;;15.89;45.26
55460;BME280;41326;45.302;-122.946;2022-11-15T09:26:18;102265.33;;;15.96;45.15
55460;BME280;41326;45.302;-122.946;2022-11-15T09:28:48;102276.68;;;16.02;44.95
55460;BME280;41326;45.302;-122.946;2022-11-15T09:31:18;102267.70;;;16.03;44.81
55460;BME280;41326;45.302;-122.946;2022-11-15T09:33:49;102272.12;;;15.99;44.91
55460;BME280;41326;45.302;-122.946;2022-11-15T09:36:18;102259.34;;;15.97;44.93
55460;BME280;41326;45.302;-122.946;2022-11-15T09:38:49;102267.05;;;15.92;45.01
55460;BME280;41326;45.302;-122.946;2022-11-15T09:41:37;102256.90;;;16.03;44.94
55460;BME280;41326;45.302;-122.946;2022-11-15T09:43:55;102276.60;;;16.05;44.91
55460;BME280;41326;45.302;-122.946;2022-11-15T09:46:24;102266.27;;;16.06;44.76
55460;BME280;41326;45.302;-122.946;2022-11-15T09:48:55;102264.36;;;16.08;44.56
55460;BME280;41326;45.302;-122.946;2022-11-15T09:51:27;102266.30;;;16.04;44.52
55460;BME280;41326;45.302;-122.946;2022-11-15T09:53:57;102271.70;;;15.99;44.53
55460;BME280;41326;45.302;-122.946;2022-11-15T09:56:25;102274.24;;;15.96;44.49
55460;BME280;41326;45.302;-122.946;2022-11-15T09:58:59;102279.23;;;16.05;44.34
55460;BME280;41326;45.302;-122.946;2022-11-15T10:01:26;102282.95;;;16.08;44.23
55460;BME280;41326;45.302;-122.946;2022-11-15T10:03:51;102282.84;;;16.12;44.02
55460;BME280;41326;45.302;-122.946;2022-11-15T10:06:27;102277.91;;;16.11;43.85
55460;BME280;41326;45.302;-122.946;2022-11-15T10:08:57;102282.18;;;16.04;43.67
55460;BME280;41326;45.302;-122.946;2022-11-15T10:11:24;102274.55;;;16.06;43.59
55460;BME280;41326;45.302;-122.946;2022-11-15T10:13:56;102279.49;;;16.13;43.41
55460;BME280;41326;45.302;-122.946;2022-11-15T10:16:41;102279.44;;;16.15;43.29
55460;BME280;41326;45.302;-122.946;2022-11-15T10:19:00;102287.47;;;16.13;43.21
55460;BME280;41326;45.302;-122.946;2022-11-15T10:21:42;102288.85;;;16.06;43.17
55460;BME280;41326;45.302;-122.946;2022-11-15T10:23:56;102289.13;;;16.02;43.13
55460;BME280;41326;45.302;-122.946;2022-11-15T10:26:25;102294.13;;;15.95;43.15
55460;BME280;41326;45.302;-122.946;2022-11-15T10:28:56;102299.56;;;15.99;42.98
55460;BME280;41326;45.302;-122.946;2022-11-15T10:31:28;102300.56;;;16.08;42.95
55460;BME280;41326;45.302;-122.946;2022-11-15T10:33:59;102306.70;;;16.12;42.94
55460;BME280;41326;45.302;-122.946;2022-11-15T10:36:28;102301.50;;;16.11;42.95
55460;BME280;41326;45.302;-122.946;2022-11-15T10:38:58;102316.22;;;16.06;43.02
55460;BME280;41326;45.302;-122.946;2022-11-15T10:41:30;102311.54;;;16.00;43.18
55460;BME280;41326;45.302;-122.946;2022-11-15T10:44:07;102303.61;;;16.07;43.23
55460;BME280;41326;45.302;-122.946;2022-11-15T10:46:28;102306.40;;;16.12;43.19
55460;BME280;41326;45.302;-122.946;2022-11-15T10:52:37;102310.51;;;16.12;43.12
55460;BME280;41326;45.302;-122.946;2022-11-15T10:57:39;102295.43;;;16.02;43.31
55460;BME280;41326;45.302;-122.946;2022-11-15T11:00:27;102311.72;;;16.10;43.27
55460;BME280;41326;45.302;-122.946;2022-11-15T11:02:42;102304.29;;;16.11;43.27
55460;BME280;41326;45.302;-122.946;2022-11-15T11:07:40;102306.95;;;16.06;43.27
55460;BME280;41326;45.302;-122.946;2022-11-15T11:10:20;102307.12;;;16.14;43.11
55460;BME280;41326;45.302;-122.946;2022-11-15T11:12:46;102317.32;;;16.18;43.09
55460;BME280;41326;45.302;-122.946;2022-11-15T11:15:18;102311.20;;;16.19;43.05
55460;BME280;41326;45.302;-122.946;2022-11-15T11:17:57;102307.76;;;16.16;43.06
55460;BME280;41326;45.302;-122.946;2022-11-15T11:20:24;102313.69;;;16.10;43.12
55460;BME280;41326;45.302;-122.946;2022-11-15T11:22:57;102318.74;;;16.18;42.99
55460;BME280;41326;45.302;-122.946;2022-11-15T11:25:27;102320.95;;;16.19;43.07
55460;BME280;41326;45.302;-122.946;2022-11-15T11:27:59;102313.79;;;16.20;43.00
55460;BME280;41326;45.302;-122.946;2022-11-15T11:30:24;102311.97;;;16.15;43.03
55460;BME280;41326;45.302;-122.946;2022-11-15T11:33:05;102314.69;;;16.10;43.09
55460;BME280;41326;45.302;-122.946;2022-11-15T11:35:28;102314.64;;;16.04;43.22
55460;BME280;41326;45.302;-122.946;2022-11-15T11:37:54;102314.91;;;16.05;43.17
55460;BME280;41326;45.302;-122.946;2022-11-15T11:40:29;102308.45;;;16.15;43.13
55460;BME280;41326;45.302;-122.946;2022-11-15T11:42:58;102327.71;;;16.17;43.13
55460;BME280;41326;45.302;-122.946;2022-11-15T11:45:30;102334.88;;;16.14;43.11
55460;BME280;41326;45.302;-122.946;2022-11-15T11:47:55;102334.13;;;16.10;43.13
55460;BME280;41326;45.302;-122.946;2022-11-15T11:50:25;102341.03;;;16.14;43.13
55460;BME280;41326;45.302;-122.946;2022-11-15T11:52:59;102341.73;;;16.16;43.15
55460;BME280;41326;45.302;-122.946;2022-11-15T11:55:28;102336.97;;;16.20;43.03
55460;BME280;41326;45.302;-122.946;2022-11-15T11:58:01;102341.49;;;16.17;42.99
55460;BME280;41326;45.302;-122.946;2022-11-15T12:00:26;102339.71;;;16.11;43.15
55460;BME280;41326;45.302;-122.946;2022-11-15T12:03:04;102348.89;;;16.09;43.16
55460;BME280;41326;45.302;-122.946;2022-11-15T12:05:28;102351.37;;;16.19;43.01
55460;BME280;41326;45.302;-122.946;2022-11-15T12:08:01;102354.76;;;16.20;43.00
55460;BME280;41326;45.302;-122.946;2022-11-15T12:10:29;102369.71;;;16.21;42.98
55460;BME280;41326;45.302;-122.946;2022-11-15T12:13:02;102375.54;;;16.18;43.06
55460;BME280;41326;45.302;-122.946;2022-11-15T12:15:29;102389.80;;;16.11;43.21
55460;BME280;41326;45.302;-122.946;2022-11-15T12:17:57;102392.32;;;16.10;43.24
55460;BME280;41326;45.302;-122.946;2022-11-15T12:20:29;102388.53;;;16.20;43.18
55460;BME280;41326;45.302;-122.946;2022-11-15T12:23:01;102395.39;;;16.19;43.22
55460;BME280;41326;45.302;-122.946;2022-11-15T12:25:31;102394.04;;;16.18;43.25
55460;BME280;41326;45.302;-122.946;2022-11-15T12:28:02;102397.10;;;16.12;43.36
55460;BME280;41326;45.302;-122.946;2022-11-15T12:30:36;102406.05;;;16.08;43.38
55460;BME280;41326;45.302;-122.946;2022-11-15T12:33:00;102403.20;;;16.06;43.42
55460;BME280;41326;45.302;-122.946;2022-11-15T12:35:36;102394.40;;;15.98;43.60
55460;BME280;41326;45.302;-122.946;2022-11-15T12:37:59;102393.27;;;15.97;43.60
55460;BME280;41326;45.302;-122.946;2022-11-15T12:40:35;102389.97;;;16.05;43.52
55460;BME280;41326;45.302;-122.946;2022-11-15T12:45:33;102398.99;;;16.15;43.31
55460;BME280;41326;45.302;-122.946;2022-11-15T12:55:35;102396.77;;;15.98;43.51
55460;BME280;41326;45.302;-122.946;2022-11-15T13:00:40;102404.29;;;16.10;43.45